• Join FlightAware (Why Join?)
  • Login
  • US Flag 
09:13PM EDT


 

Airport Tracker/Info


-or-


 

Live Flight TrackerFlight Track Log ✈ N100MW ✈ 11-Jul-2013 ✈ KCZQ - KWVI

Flight Track Log - Related Links

Times and Time Zones

All times are in EDT time to prevent confusion due to time zone crossing. See the N100MW flight status page for this flight to view local times or setup timezone preferences in your user account.

Time Position Orientation Groundspeed Altitude Reporting Facility
EDT Latitude Longitude Course Direction KTS MPH feet Rate Location/Type
11:52AM 36.8092 -119.8267 276° West 147 169 2,900  Level Oakland Center
11:53AM 36.8139 -119.8786 276° West 138 159 4,200 1,200 Climbing Oakland Center
11:54AM 36.8194 -119.9297 278° West 138 159 5,400 1,080 Climbing Oakland Center
11:55AM 36.8194 -119.9781 270° West 140 161 6,500 1,020 Climbing Oakland Center
11:56AM 36.8181 -120.0264 268° West 140 161 7,600 840 Climbing Oakland Center
11:57AM 36.8169 -120.0772 268° West 144 166 8,300 780 Climbing Oakland Center
11:58AM 36.8236 -120.1308 279° West 157 181 9,200 780 Climbing Oakland Center
11:59AM 36.8275 -120.1894 275° West 162 186 10,000 660 Climbing Oakland Center
12:00PM 36.8294 -120.2411 273° West 164 189 10,600 780 Climbing Oakland Center
12:01PM 36.8347 -120.3058 276° West 155 178 11,600 900 Climbing Oakland Center
12:02PM 36.8400 -120.3594 277° West 156 180 12,500 480 Climbing Oakland Center
12:03PM 36.8453 -120.4172 277° West 172 198 12,600 60 Climbing Oakland Center
12:04PM 36.8525 -120.4831 278° West 192 221 12,700  Climbing Oakland Center
12:05PM 36.8592 -120.5531 277° West 204 235 12,600 -120 Descending Oakland Center
12:06PM 36.8539 -120.6217 265° West 201 231 12,500 -360 Descending Oakland Center
12:07PM 36.8447 -120.6908 261° West 203 234 11,900 -540 Descending Oakland Center
12:08PM 36.8375 -120.7603 263° West 204 235 11,400 -480 Descending Oakland Center
12:09PM 36.8300 -120.8286 262° West 201 231 11,000 -540 Descending Oakland Center
12:10PM 36.8197 -120.9053 261° West 190 219 10,300 -600 Descending Oakland Center
12:11PM 36.8108 -120.9744 261° West 197 227 9,800 -540 Descending Oakland Center
12:12PM 36.8017 -121.0428 261° West 199 229 9,200 -600 Descending Oakland Center
12:13PM 36.7939 -121.1122 262° West 203 234 8,700 -540 Descending Oakland Center
12:14PM 36.7886 -121.1806 265° West 201 231 8,100 -600 Descending Oakland Center
12:15PM 36.7833 -121.2500 265° West 203 234 7,500 -600 Descending Oakland Center
12:16PM 36.7769 -121.3186 263° West 200 230 6,900 -660 Descending Oakland Center
12:17PM 36.7689 -121.3869 262° West 202 232 6,200 -720 Descending Oakland Center
12:18PM 36.7558 -121.4689 259° West 202 232 5,500 -660 Descending Oakland Center
12:19PM 36.7442 -121.5375 258° West 203 234 4,900 -540 Descending Oakland Center
12:20PM 36.7350 -121.6056 260° West 201 231 4,400 -600 Descending Oakland Center
12:21PM 36.7333 -121.6500 267° West 196 226 4,000 -600 Descending Northern Cal TRACON
12:22PM 36.7333 -121.7167 270° West 198 228 3,500 -480 Descending Northern Cal TRACON
12:23PM 36.7333 -121.7833 270° West 198 228 3,100 -300 Descending Northern Cal TRACON
12:24PM 36.7333 -121.8500 270° West 184 212 3,000  Descending Northern Cal TRACON
12:25PM 36.7333 -121.9000 270° West 170 196 3,100  Climbing Northern Cal TRACON
12:26PM 36.7667 -121.9333 321° Northwest 153 176 3,000 -120 Descending Northern Cal TRACON
12:27PM 36.8000 -121.9167 22° Northeast 164 189 2,900 -180 Descending Northern Cal TRACON
12:28PM 36.8333 -121.8667 50° Northeast 161 185 2,700 -540 Descending Northern Cal TRACON
12:29PM 36.8667 -121.8500 22° Northeast 150 173 1,900 -780 Descending Northern Cal TRACON
12:29PM 36.8833 -121.8311 42° Northeast 157 181 1,400 -840 Descending Oakland Center
12:30PM 36.9172 -121.8056 31° Northeast 150 173 500 -900 Descending Oakland Center